Time;durP1;ratioP1;P1;durP2;ratioP2;P2;SDS_P1;SDS_P2;PMS_P1;PMS_P2;Temp;Humidity;BMP_temperature;BMP_pressure;BME280_temperature;BME280_humidity;BME280_pressure;Samples;Min_cycle;Max_cycle;Signal;HPM_P1;HPM_P2
2023/01/23 00:01:03;;;;;;;16.60;12.35;;;2.00;99.90;;;;;;5052828;28;20104;-83
2023/01/23 00:03:29;;;;;;;21.92;16.10;;;2.10;99.90;;;;;;5053075;28;20520;-83
2023/01/23 00:05:59;;;;;;;26.45;19.35;;;2.20;99.90;;;;;;5052717;28;20104;-83
2023/01/23 00:08:26;;;;;;;18.42;13.90;;;2.20;99.90;;;;;;5052721;28;20064;-83
2023/01/23 00:10:51;;;;;;;29.20;21.25;;;2.00;99.90;;;;;;5052814;28;20029;-83
2023/01/23 00:13:17;;;;;;;23.60;18.17;;;2.10;99.90;;;;;;5052391;28;20033;-83
2023/01/23 00:15:43;;;;;;;16.40;12.75;;;2.50;99.90;;;;;;5052665;28;20100;-83
2023/01/23 00:18:09;;;;;;;23.05;16.45;;;2.00;99.90;;;;;;5052609;28;20681;-83
2023/01/23 00:20:39;;;;;;;17.02;13.35;;;1.90;99.90;;;;;;5052314;28;20045;-83
2023/01/23 00:23:05;;;;;;;17.20;12.27;;;2.00;99.90;;;;;;5052892;28;20048;-83
2023/01/23 00:25:32;;;;;;;20.67;14.63;;;2.00;99.90;;;;;;5052518;28;20428;-83
2023/01/23 00:27:58;;;;;;;19.10;14.15;;;2.00;99.90;;;;;;5051759;28;20087;-83
2023/01/23 00:30:23;;;;;;;18.20;12.52;;;2.00;99.90;;;;;;5052111;28;20025;-83
2023/01/23 00:32:49;;;;;;;22.38;16.45;;;2.30;99.90;;;;;;5052096;28;20052;-83
2023/01/23 00:35:15;;;;;;;21.15;14.85;;;1.90;99.90;;;;;;5052773;28;20056;-83
2023/01/23 00:37:41;;;;;;;27.70;20.35;;;2.00;99.90;;;;;;5052479;28;20029;-83
2023/01/23 00:40:07;;;;;;;23.00;17.08;;;2.00;99.90;;;;;;5052367;28;20025;-83
2023/01/23 00:42:33;;;;;;;18.30;13.98;;;2.00;99.90;;;;;;5052028;28;20029;-83
2023/01/23 00:44:59;;;;;;;25.42;17.45;;;2.00;99.90;;;;;;5052196;28;20497;-83
2023/01/23 00:47:24;;;;;;;23.35;15.57;;;2.00;99.90;;;;;;5052175;28;20056;-84
2023/01/23 00:49:52;;;;;;;18.70;14.00;;;2.10;99.90;;;;;;5052247;28;20029;-83
2023/01/23 00:52:18;;;;;;;18.80;13.55;;;2.50;99.90;;;;;;5052143;28;20048;-83
2023/01/23 00:54:44;;;;;;;25.83;17.48;;;2.10;99.90;;;;;;5052041;28;20032;-83
2023/01/23 00:57:10;;;;;;;20.52;14.57;;;2.10;99.90;;;;;;5051724;28;20024;-83
2023/01/23 00:59:35;;;;;;;29.42;19.88;;;2.00;99.90;;;;;;5052280;28;20025;-83
2023/01/23 01:02:01;;;;;;;19.48;14.43;;;2.10;99.90;;;;;;5052099;28;20396;-84
2023/01/23 01:04:27;;;;;;;16.77;12.82;;;2.50;99.90;;;;;;5051906;28;20036;-83
2023/01/23 01:06:52;;;;;;;31.75;20.73;;;2.10;99.90;;;;;;5051941;28;20144;-83
2023/01/23 01:09:18;;;;;;;18.33;13.18;;;2.60;99.90;;;;;;5052413;28;20473;-83
2023/01/23 01:11:44;;;;;;;26.63;17.77;;;2.30;99.90;;;;;;5051649;28;20036;-83
2023/01/23 01:14:09;;;;;;;18.88;14.07;;;1.90;99.90;;;;;;5051867;28;20022;-83
2023/01/23 01:16:36;;;;;;;21.33;14.43;;;2.00;99.90;;;;;;5051685;28;20029;-83
2023/01/23 01:19:02;;;;;;;24.55;16.33;;;2.10;99.90;;;;;;5051820;28;20441;-83
2023/01/23 01:21:29;;;;;;;24.90;16.90;;;2.00;99.90;;;;;;5051966;28;20040;-83
2023/01/23 01:23:54;;;;;;;26.58;16.00;;;2.00;99.90;;;;;;5052069;28;20044;-83
2023/01/23 01:26:21;;;;;;;25.08;16.23;;;1.90;99.90;;;;;;5051476;28;20440;-83
2023/01/23 01:28:48;;;;;;;24.23;16.75;;;2.10;99.90;;;;;;5051694;28;20477;-84
2023/01/23 01:31:14;;;;;;;18.23;14.13;;;2.40;99.90;;;;;;5051947;28;20032;-82
2023/01/23 01:33:42;;;;;;;27.73;17.60;;;2.10;99.90;;;;;;5051714;28;20517;-83
2023/01/23 01:36:17;;;;;;;30.17;18.58;;;2.10;99.90;;;;;;5051696;28;20025;-84
2023/01/23 01:38:43;;;;;;;23.45;15.32;;;2.10;99.90;;;;;;5051757;28;20112;-83
2023/01/23 01:41:11;;;;;;;25.35;16.38;;;2.00;99.90;;;;;;5054584;28;20468;-83
2023/01/23 01:43:36;;;;;;;17.27;12.38;;;2.10;99.90;;;;;;5055113;28;20036;-82
2023/01/23 01:46:21;;;;;;;25.02;16.27;;;2.50;99.90;;;;;;5055500;28;20025;-83
2023/01/23 01:49:02;;;;;;;19.10;13.90;;;1.80;99.90;;;;;;5055488;28;20028;-83
2023/01/23 01:51:29;;;;;;;18.77;13.73;;;1.90;99.90;;;;;;5055780;28;20070;-83
2023/01/23 01:54:20;;;;;;;19.05;13.57;;;2.00;99.90;;;;;;5055103;28;20043;-83
2023/01/23 01:56:58;;;;;;;20.48;14.05;;;1.90;99.90;;;;;;5054548;28;20029;-83
2023/01/23 01:59:28;;;;;;;19.55;14.15;;;2.00;99.90;;;;;;5055326;28;20140;-82
2023/01/23 02:02:03;;;;;;;18.67;12.93;;;2.20;99.90;;;;;;5055270;28;20016;-81
2023/01/23 02:04:31;;;;;;;18.52;13.35;;;2.00;99.90;;;;;;5055307;28;20033;-82
2023/01/23 02:06:58;;;;;;;17.85;13.35;;;2.40;99.90;;;;;;5055049;28;20050;-83
2023/01/23 02:09:25;;;;;;;18.92;13.90;;;1.90;99.90;;;;;;5054791;28;20033;-83
2023/01/23 02:11:51;;;;;;;18.65;13.40;;;2.00;99.90;;;;;;5055238;28;20047;-83
2023/01/23 02:14:17;;;;;;;18.17;13.18;;;2.00;99.90;;;;;;5054929;28;20494;-83
2023/01/23 02:16:49;;;;;;;18.35;13.98;;;2.10;99.90;;;;;;5054653;28;20028;-83
2023/01/23 02:19:46;;;;;;;17.42;13.88;;;2.10;99.90;;;;;;5055212;28;20041;-83
2023/01/23 02:22:45;;;;;;;17.20;12.52;;;2.10;99.90;;;;;;5054755;28;20032;-83
2023/01/23 02:25:37;;;;;;;17.42;12.68;;;2.00;99.90;;;;;;5036918;28;20033;-83
2023/01/23 02:28:03;;;;;;;16.42;13.07;;;2.00;99.90;;;;;;5054622;28;20025;-84
2023/01/23 02:30:28;;;;;;;17.58;13.23;;;2.00;99.90;;;;;;5055115;28;20025;-83
2023/01/23 02:33:10;;;;;;;17.85;13.77;;;2.10;99.90;;;;;;5054386;28;20041;-83
2023/01/23 02:35:36;;;;;;;18.00;13.38;;;2.10;99.90;;;;;;5054453;28;20028;-83
2023/01/23 02:38:03;;;;;;;19.95;14.45;;;2.10;99.90;;;;;;5054512;28;20481;-83
2023/01/23 02:40:35;;;;;;;17.23;12.95;;;2.50;99.90;;;;;;5054762;28;20029;-83
2023/01/23 02:43:03;;;;;;;17.52;13.35;;;2.10;99.90;;;;;;5054355;28;20102;-83
2023/01/23 02:45:30;;;;;;;17.80;12.73;;;2.20;99.90;;;;;;5054242;28;20086;-83
2023/01/23 02:47:55;;;;;;;17.88;13.57;;;2.10;99.90;;;;;;5054490;28;20036;-83
2023/01/23 02:50:21;;;;;;;16.33;12.55;;;2.10;99.90;;;;;;5054650;28;20414;-83
2023/01/23 02:52:49;;;;;;;18.75;13.43;;;2.10;99.90;;;;;;5052931;28;20033;-83
2023/01/23 02:55:16;;;;;;;17.40;13.68;;;2.10;99.90;;;;;;5054054;28;20037;-83
2023/01/23 02:57:44;;;;;;;16.90;12.93;;;2.00;99.90;;;;;;5054234;28;20490;-83
2023/01/23 03:00:18;;;;;;;17.00;12.32;;;1.90;99.90;;;;;;5054254;28;20067;-83
2023/01/23 03:02:46;;;;;;;18.50;13.80;;;2.00;99.90;;;;;;5054113;28;20024;-84
2023/01/23 03:05:12;;;;;;;17.60;12.55;;;1.90;99.90;;;;;;5054081;28;20032;-83
2023/01/23 03:07:37;;;;;;;17.83;13.85;;;1.90;99.90;;;;;;5053649;28;20017;-84
2023/01/23 03:10:06;;;;;;;15.77;12.05;;;2.00;99.90;;;;;;5054227;28;20159;-83
2023/01/23 03:12:32;;;;;;;18.45;13.73;;;2.00;99.90;;;;;;5053861;28;20025;-83
2023/01/23 03:14:57;;;;;;;17.88;13.07;;;2.30;99.90;;;;;;5053735;28;20021;-83
2023/01/23 03:17:24;;;;;;;16.90;12.63;;;1.90;99.90;;;;;;5053503;28;20025;-83
2023/01/23 03:19:50;;;;;;;17.30;13.63;;;2.30;99.90;;;;;;5054051;28;20021;-82
2023/01/23 03:22:15;;;;;;;17.40;13.07;;;1.90;99.90;;;;;;5053288;28;20438;-83
2023/01/23 03:24:41;;;;;;;18.30;13.27;;;2.00;99.90;;;;;;5053529;28;20100;-84
2023/01/23 03:27:07;;;;;;;18.13;13.55;;;2.00;99.90;;;;;;5053742;28;20375;-83
2023/01/23 03:32:17;;;;;;;17.88;13.60;;;2.50;99.90;;;;;;5053175;28;20059;-83
2023/01/23 03:34:43;;;;;;;17.17;13.07;;;2.10;99.90;;;;;;5035847;28;20025;-83
2023/01/23 03:37:10;;;;;;;16.63;12.40;;;2.00;99.90;;;;;;5053217;28;20036;-83
2023/01/23 03:42:21;;;;;;;16.55;12.10;;;2.10;99.90;;;;;;5053609;28;20040;-83
2023/01/23 03:44:48;;;;;;;17.75;13.25;;;2.30;99.90;;;;;;5053021;28;20508;-83
2023/01/23 03:47:14;;;;;;;16.65;12.60;;;2.20;99.90;;;;;;5053578;28;20025;-83
2023/01/23 03:49:39;;;;;;;15.90;12.50;;;1.80;99.90;;;;;;5052965;28;20520;-83
2023/01/23 03:52:05;;;;;;;16.83;13.02;;;2.40;99.90;;;;;;5052698;28;20040;-83
2023/01/23 03:54:31;;;;;;;16.10;12.63;;;2.00;99.90;;;;;;5053250;28;20025;-83
2023/01/23 03:56:56;;;;;;;16.75;12.75;;;2.30;99.90;;;;;;5052684;28;20389;-83
2023/01/23 03:59:22;;;;;;;17.17;12.13;;;2.30;99.90;;;;;;5052969;28;20028;-83
2023/01/23 04:01:48;;;;;;;15.90;11.90;;;1.90;99.90;;;;;;5044917;28;20041;-83
2023/01/23 04:04:14;;;;;;;16.88;12.88;;;1.80;99.90;;;;;;5052471;28;20466;-82
2023/01/23 04:06:39;;;;;;;16.83;12.82;;;1.90;99.90;;;;;;5052965;28;20025;-83
2023/01/23 04:09:05;;;;;;;17.20;13.40;;;2.20;99.90;;;;;;5052664;28;20100;-83
2023/01/23 04:11:31;;;;;;;17.05;13.00;;;1.90;99.90;;;;;;5053093;28;20060;-84
2023/01/23 04:13:56;;;;;;;16.77;12.18;;;1.90;99.90;;;;;;5052920;28;20024;-83
2023/01/23 04:16:22;;;;;;;17.13;13.13;;;2.00;99.90;;;;;;5052451;28;20461;-83
2023/01/23 04:18:53;;;;;;;17.63;12.52;;;1.90;99.90;;;;;;5052736;28;20036;-83
2023/01/23 04:21:19;;;;;;;16.05;12.65;;;2.00;99.90;;;;;;5052489;28;20055;-83
2023/01/23 04:23:44;;;;;;;18.15;12.40;;;2.10;99.90;;;;;;5052364;28;20033;-83
2023/01/23 04:26:11;;;;;;;16.42;12.25;;;2.10;99.90;;;;;;5052502;28;20021;-83
2023/01/23 04:28:36;;;;;;;15.98;12.43;;;2.00;99.90;;;;;;5052902;28;20470;-83
2023/01/23 04:31:02;;;;;;;16.67;12.77;;;2.00;99.90;;;;;;5052221;28;20045;-84
2023/01/23 04:33:28;;;;;;;17.38;13.20;;;2.10;99.90;;;;;;5051726;28;20551;-83
2023/01/23 04:36:00;;;;;;;15.13;11.75;;;2.00;99.90;;;;;;5052644;28;20025;-83
2023/01/23 04:38:27;;;;;;;15.88;11.75;;;2.30;99.90;;;;;;5052366;28;20025;-83
2023/01/23 04:40:53;;;;;;;15.40;11.95;;;1.90;99.90;;;;;;5052204;28;20087;-83
2023/01/23 04:43:19;;;;;;;15.82;12.13;;;1.80;99.90;;;;;;5052615;28;20041;-83
2023/01/23 04:45:45;;;;;;;17.25;13.13;;;1.90;99.90;;;;;;5052026;28;20045;-83
2023/01/23 04:48:12;;;;;;;15.13;11.55;;;1.90;99.90;;;;;;5051918;28;20044;-83
2023/01/23 04:50:38;;;;;;;15.32;11.55;;;1.90;99.90;;;;;;5052477;28;20485;-84
2023/01/23 04:53:04;;;;;;;15.18;11.80;;;1.90;99.90;;;;;;5052010;28;20024;-83
2023/01/23 04:55:29;;;;;;;15.45;11.20;;;1.80;99.90;;;;;;5051846;28;20477;-83
2023/01/23 04:57:55;;;;;;;14.65;11.20;;;1.80;99.90;;;;;;5052491;28;20075;-84
2023/01/23 05:00:21;;;;;;;14.95;11.63;;;1.80;99.90;;;;;;5051735;28;20032;-83
2023/01/23 05:02:48;;;;;;;16.13;12.27;;;1.90;99.90;;;;;;5052021;28;20079;-83
2023/01/23 05:05:16;;;;;;;17.13;12.40;;;2.40;99.90;;;;;;5051917;28;20445;-83
2023/01/23 05:07:41;;;;;;;16.02;12.23;;;2.00;99.90;;;;;;5051834;28;20402;-83
2023/01/23 05:10:08;;;;;;;15.68;12.15;;;2.00;99.90;;;;;;5051826;28;20036;-83
2023/01/23 05:12:34;;;;;;;14.60;11.32;;;2.00;99.90;;;;;;5051820;28;20021;-83
2023/01/23 05:14:59;;;;;;;15.80;12.43;;;2.00;99.90;;;;;;5052901;28;20386;-83
2023/01/23 05:17:25;;;;;;;14.88;11.40;;;2.40;99.90;;;;;;5048454;28;20048;-83
2023/01/23 05:19:50;;;;;;;16.42;11.75;;;2.00;99.90;;;;;;5055931;28;20028;-83
2023/01/23 05:22:16;;;;;;;15.13;11.80;;;1.90;99.90;;;;;;5055969;28;20040;-83
2023/01/23 05:24:42;;;;;;;15.07;11.80;;;2.30;99.90;;;;;;5056183;28;20033;-83
2023/01/23 05:27:08;;;;;;;15.73;12.05;;;2.00;99.90;;;;;;5055818;28;20017;-83
2023/01/23 05:29:34;;;;;;;15.48;12.23;;;2.00;99.90;;;;;;5055682;28;20029;-83
2023/01/23 05:31:59;;;;;;;16.13;12.13;;;1.90;99.90;;;;;;5055274;28;20494;-83
2023/01/23 05:34:25;;;;;;;16.60;12.25;;;2.20;99.90;;;;;;5055622;28;20029;-83
2023/01/23 05:36:51;;;;;;;15.48;11.70;;;2.30;99.90;;;;;;5055394;28;20140;-83
2023/01/23 05:39:16;;;;;;;16.45;12.40;;;2.00;99.90;;;;;;5055728;28;20032;-83
2023/01/23 05:41:42;;;;;;;15.10;11.52;;;2.00;99.90;;;;;;5055578;28;20040;-83
2023/01/23 05:44:08;;;;;;;16.60;12.35;;;1.90;99.90;;;;;;5055328;28;20059;-83
2023/01/23 05:46:33;;;;;;;14.93;11.98;;;1.90;99.90;;;;;;5055439;28;20389;-83
2023/01/23 05:48:59;;;;;;;16.70;12.60;;;1.90;99.90;;;;;;5055245;28;20032;-83
2023/01/23 05:51:30;;;;;;;15.90;12.43;;;2.10;99.90;;;;;;5055383;28;20024;-83
2023/01/23 05:53:56;;;;;;;16.33;12.00;;;2.10;99.90;;;;;;5055310;28;20025;-83
2023/01/23 05:56:22;;;;;;;16.58;12.15;;;2.60;99.90;;;;;;5055193;28;20036;-83
2023/01/23 05:58:48;;;;;;;17.98;14.10;;;1.90;99.90;;;;;;5055566;28;20032;-83
2023/01/23 06:01:13;;;;;;;17.17;14.35;;;2.10;99.90;;;;;;5054919;28;20029;-83
2023/01/23 06:03:39;;;;;;;18.40;13.85;;;2.40;99.90;;;;;;5055044;28;20401;-83
2023/01/23 06:06:05;;;;;;;16.35;12.63;;;2.10;99.90;;;;;;5055067;28;20079;-83
2023/01/23 06:08:31;;;;;;;16.00;12.07;;;2.10;99.90;;;;;;5054952;28;20508;-83
2023/01/23 06:10:58;;;;;;;16.20;13.05;;;2.10;99.90;;;;;;5055325;28;20021;-83
2023/01/23 06:13:24;;;;;;;15.65;12.05;;;2.10;99.90;;;;;;5055050;28;20100;-84
2023/01/23 06:15:50;;;;;;;14.85;11.43;;;2.10;99.90;;;;;;5054282;28;20477;-83
2023/01/23 06:18:16;;;;;;;17.88;13.00;;;2.10;99.90;;;;;;5054801;28;20043;-84
2023/01/23 06:20:41;;;;;;;16.02;12.65;;;2.10;99.90;;;;;;5054935;28;20044;-83
2023/01/23 06:23:07;;;;;;;18.40;13.43;;;2.10;99.90;;;;;;5054769;28;20095;-84
2023/01/23 06:25:33;;;;;;;17.05;11.90;;;2.10;99.90;;;;;;5054524;28;20021;-83
2023/01/23 06:27:58;;;;;;;18.25;13.45;;;2.00;99.90;;;;;;5054649;28;20029;-83
2023/01/23 06:30:25;;;;;;;25.52;19.45;;;2.40;99.90;;;;;;5054537;28;20049;-82
2023/01/23 06:32:51;;;;;;;16.80;13.32;;;2.00;99.90;;;;;;5054239;28;20095;-85
2023/01/23 06:35:16;;;;;;;17.50;13.02;;;2.40;99.90;;;;;;5053917;28;20072;-84
2023/01/23 06:37:42;;;;;;;16.13;12.07;;;1.90;99.90;;;;;;5053850;28;20036;-83
2023/01/23 06:40:12;;;;;;;15.77;13.05;;;1.90;99.90;;;;;;5054078;28;20021;-83
2023/01/23 06:42:38;;;;;;;16.63;12.80;;;1.90;99.90;;;;;;5054537;28;20256;-84
2023/01/23 06:45:05;;;;;;;29.17;22.95;;;2.00;99.90;;;;;;5054093;28;20029;-83
2023/01/23 06:47:31;;;;;;;17.38;13.20;;;2.00;99.90;;;;;;5053968;28;20033;-85
2023/01/23 06:49:57;;;;;;;27.15;17.08;;;2.10;99.90;;;;;;5054104;28;20569;-83
2023/01/23 06:52:22;;;;;;;59.33;33.78;;;2.10;99.90;;;;;;5054134;28;20029;-84
2023/01/23 06:54:48;;;;;;;78.93;43.67;;;2.20;99.90;;;;;;5053793;28;20025;-84
2023/01/23 06:57:14;;;;;;;39.97;24.48;;;2.00;99.90;;;;;;5053945;28;20064;-84
2023/01/23 06:59:40;;;;;;;37.60;24.17;;;2.00;99.90;;;;;;5053996;28;20029;-83
2023/01/23 07:02:05;;;;;;;16.70;13.73;;;2.30;99.90;;;;;;5053962;28;20033;-83
2023/01/23 07:04:32;;;;;;;32.42;20.42;;;2.00;99.90;;;;;;5053843;28;20167;-83
2023/01/23 07:06:57;;;;;;;21.25;15.13;;;2.10;99.90;;;;;;5053388;28;20021;-84
2023/01/23 07:09:23;;;;;;;32.78;20.45;;;2.10;99.90;;;;;;5053896;28;20543;-84
2023/01/23 07:11:49;;;;;;;28.42;19.00;;;2.40;99.90;;;;;;5053882;28;20052;-83
2023/01/23 07:14:14;;;;;;;28.50;19.90;;;2.40;99.90;;;;;;5053344;28;20021;-83
2023/01/23 07:16:40;;;;;;;43.75;27.08;;;2.20;99.90;;;;;;5046597;28;20502;-84
2023/01/23 07:19:06;;;;;;;29.50;18.80;;;2.10;99.90;;;;;;5053477;28;20035;-83
2023/01/23 07:21:31;;;;;;;19.25;13.75;;;2.40;99.90;;;;;;5053738;28;20024;-84
2023/01/23 07:23:57;;;;;;;28.48;19.15;;;2.10;99.90;;;;;;5053438;28;20124;-83
2023/01/23 07:26:23;;;;;;;21.42;16.38;;;2.20;99.90;;;;;;5053879;28;20108;-83
2023/01/23 07:28:48;;;;;;;22.63;16.95;;;2.50;99.90;;;;;;5053229;28;20025;-83
2023/01/23 07:31:15;;;;;;;62.88;36.72;;;2.10;99.90;;;;;;5053112;28;20025;-83
2023/01/23 07:33:40;;;;;;;27.75;18.13;;;2.60;99.90;;;;;;5053290;28;20047;-84
2023/01/23 07:36:07;;;;;;;26.70;19.60;;;2.90;99.90;;;;;;5053399;28;20096;-83
2023/01/23 07:38:33;;;;;;;22.65;15.85;;;2.40;99.90;;;;;;5052759;28;20028;-83
2023/01/23 07:40:59;;;;;;;33.60;21.70;;;2.50;99.90;;;;;;5053226;28;20540;-84
2023/01/23 07:43:25;;;;;;;40.85;25.58;;;2.30;99.90;;;;;;5052906;28;20112;-84
2023/01/23 07:45:51;;;;;;;54.00;32.03;;;2.20;99.90;;;;;;5053313;28;20417;-84
2023/01/23 07:48:17;;;;;;;24.27;16.42;;;2.20;99.90;;;;;;5053241;28;20025;-83
2023/01/23 07:50:42;;;;;;;18.25;13.70;;;2.20;99.90;;;;;;5052918;28;20120;-83
2023/01/23 07:53:08;;;;;;;46.58;28.20;;;2.20;99.90;;;;;;5051772;28;20088;-87
2023/01/23 07:55:37;;;;;;;69.10;42.00;;;2.40;99.90;;;;;;5034541;28;20409;-82
2023/01/23 07:58:02;;;;;;;51.72;32.35;;;2.70;99.90;;;;;;5052801;28;20055;-81
2023/01/23 08:00:28;;;;;;;59.78;36.60;;;2.80;99.90;;;;;;5052370;28;20478;-85
2023/01/23 08:02:54;;;;;;;41.22;27.52;;;2.90;99.90;;;;;;5053054;28;20485;-82
2023/01/23 08:05:20;;;;;;;34.10;23.35;;;3.20;99.90;;;;;;5052326;28;20147;-80
2023/01/23 08:07:46;;;;;;;58.28;38.03;;;3.20;99.90;;;;;;5052204;28;20099;-74
2023/01/23 08:10:11;;;;;;;24.17;17.95;;;2.80;99.90;;;;;;5052705;28;20063;-83
2023/01/23 08:12:37;;;;;;;18.73;14.02;;;3.00;99.90;;;;;;5052225;28;20079;-84
2023/01/23 08:15:03;;;;;;;33.45;22.90;;;3.40;99.90;;;;;;5052361;28;20060;-83
2023/01/23 08:17:29;;;;;;;29.80;19.95;;;2.80;99.90;;;;;;5051965;28;20029;-84
2023/01/23 08:19:54;;;;;;;22.77;17.27;;;2.80;99.90;;;;;;5052215;28;20397;-82
2023/01/23 08:22:20;;;;;;;38.90;25.27;;;2.70;99.90;;;;;;5052169;28;20021;-82
2023/01/23 08:24:46;;;;;;;98.50;58.08;;;2.80;99.90;;;;;;5052740;28;20037;-83
2023/01/23 08:27:11;;;;;;;41.22;26.17;;;3.00;99.90;;;;;;5051841;28;20025;-82
2023/01/23 08:29:37;;;;;;;62.22;36.20;;;3.20;99.90;;;;;;5051913;28;20106;-82
2023/01/23 08:32:03;;;;;;;23.25;15.23;;;3.10;99.90;;;;;;5051819;28;20115;-82
2023/01/23 08:34:29;;;;;;;38.22;22.88;;;2.90;99.90;;;;;;5052855;28;20519;-83
2023/01/23 08:36:54;;;;;;;60.92;33.63;;;2.90;99.90;;;;;;5052260;28;20013;-85
2023/01/23 08:39:20;;;;;;;46.97;26.50;;;2.80;99.90;;;;;;5053865;28;20055;-82
2023/01/23 08:41:45;;;;;;;34.28;21.58;;;2.70;99.90;;;;;;5051617;28;20029;-81
2023/01/23 08:44:12;;;;;;;31.25;20.20;;;2.70;99.90;;;;;;5051804;28;20047;-82
2023/01/23 08:46:38;;;;;;;31.63;19.95;;;3.40;99.90;;;;;;5052070;28;20028;-82
2023/01/23 08:49:04;;;;;;;26.25;17.48;;;3.00;99.90;;;;;;5051374;28;20401;-83
2023/01/23 08:51:29;;;;;;;39.25;25.63;;;3.10;99.90;;;;;;5051722;28;20090;-82
2023/01/23 08:53:55;;;;;;;26.45;19.02;;;3.50;99.90;;;;;;5051717;28;20112;-82
2023/01/23 08:56:22;;;;;;;41.53;27.45;;;3.00;99.90;;;;;;5051589;28;20468;-83
2023/01/23 08:58:49;;;;;;;19.30;14.90;;;3.20;99.90;;;;;;5051380;28;20029;-84
2023/01/23 09:01:19;;;;;;;28.15;19.00;;;3.20;99.90;;;;;;5051940;28;20033;-84
2023/01/23 09:03:45;;;;;;;49.30;29.17;;;3.00;99.90;;;;;;5051440;28;20452;-83
2023/01/23 09:06:12;;;;;;;28.40;19.48;;;3.50;99.90;;;;;;5051701;28;20044;-85
2023/01/23 09:08:38;;;;;;;33.88;22.13;;;3.40;99.90;;;;;;5051719;28;20033;-84
2023/01/23 09:11:06;;;;;;;25.35;18.85;;;3.00;99.90;;;;;;5051378;28;20039;-86
2023/01/23 09:13:32;;;;;;;21.55;16.58;;;3.10;99.90;;;;;;5051607;28;20057;-84
2023/01/23 09:15:58;;;;;;;18.58;14.68;;;3.50;99.90;;;;;;5050876;28;20027;-84
2023/01/23 09:18:24;;;;;;;31.92;21.45;;;3.60;99.90;;;;;;5052334;28;20476;-84
2023/01/23 09:20:51;;;;;;;16.05;12.27;;;3.60;99.90;;;;;;5051210;28;20154;-85
2023/01/23 09:23:17;;;;;;;18.50;13.43;;;3.40;99.90;;;;;;5051419;28;20025;-85
2023/01/23 09:25:43;;;;;;;29.70;19.67;;;3.30;99.90;;;;;;5050504;28;20045;-85
2023/01/23 09:28:08;;;;;;;30.70;20.23;;;3.30;99.90;;;;;;5051412;28;20505;-84
2023/01/23 09:30:34;;;;;;;92.13;51.70;;;3.30;99.90;;;;;;5051826;28;20078;-84
2023/01/23 09:33:00;;;;;;;24.15;18.33;;;3.90;99.90;;;;;;5051515;28;20045;-85
2023/01/23 09:35:26;;;;;;;68.93;47.40;;;3.70;99.90;;;;;;5051353;28;20025;-84
2023/01/23 09:38:00;;;;;;;75.40;45.53;;;3.40;99.90;;;;;;5050851;28;20021;-85
2023/01/23 09:40:44;;;;;;;66.82;41.78;;;3.40;99.90;;;;;;5051327;28;20036;-84
2023/01/23 09:43:18;;;;;;;28.75;18.80;;;3.20;99.90;;;;;;5051568;28;20539;-88
2023/01/23 09:46:18;;;;;;;61.30;37.40;;;3.30;99.90;;;;;;5051024;28;20061;-87
2023/01/23 09:48:43;;;;;;;24.02;17.10;;;3.40;99.90;;;;;;4989902;28;20046;-92
2023/01/23 09:51:45;;;;;;;68.43;44.42;;;4.00;99.90;;;;;;4990798;28;20061;-88
2023/01/23 09:54:32;;;;;;;29.58;20.45;;;3.60;99.90;;;;;;4989456;28;20030;-86
2023/01/23 09:57:01;;;;;;;15.48;11.82;;;3.60;99.90;;;;;;4989103;28;20454;-86
2023/01/23 09:59:37;;;;;;;38.08;27.92;;;3.60;99.90;;;;;;4989570;28;20046;-87
2023/01/23 10:02:18;;;;;;;25.55;20.63;;;3.70;99.90;;;;;;4992725;28;20041;-84
2023/01/23 10:04:47;;;;;;;34.45;23.52;;;3.50;99.90;;;;;;4993359;28;20038;-86
2023/01/23 10:07:22;;;;;;;43.10;29.60;;;4.00;99.90;;;;;;4973252;28;20117;-86
2023/01/23 10:10:15;;;;;;;22.38;16.67;;;3.60;99.90;;;;;;4967287;28;20098;-86
2023/01/23 10:13:01;;;;;;;13.60;10.93;;;3.60;99.90;;;;;;4966773;28;20037;-86
2023/01/23 10:15:34;;;;;;;16.20;11.90;;;3.90;99.90;;;;;;4983710;28;20022;-87
2023/01/23 10:18:31;;;;;;;14.10;11.25;;;3.80;99.90;;;;;;4993032;28;20053;-88
2023/01/23 10:21:16;;;;;;;15.15;11.85;;;4.00;99.90;;;;;;4993045;28;20026;-87
2023/01/23 10:23:53;;;;;;;16.17;11.70;;;4.20;99.90;;;;;;4992135;28;20039;-85
2023/01/23 10:26:26;;;;;;;15.13;11.98;;;4.00;99.90;;;;;;5053519;28;20044;-86
2023/01/23 10:29:09;;;;;;;20.27;15.43;;;4.20;99.90;;;;;;5054514;28;20021;-86
2023/01/23 10:31:38;;;;;;;19.45;15.13;;;3.80;99.90;;;;;;5054434;28;20044;-86
2023/01/23 10:34:26;;;;;;;21.58;16.90;;;4.10;99.90;;;;;;5054255;28;20041;-92
2023/01/23 10:37:20;;;;;;;29.45;21.77;;;3.70;99.90;;;;;;5053817;28;20025;-87
2023/01/23 10:39:59;;;;;;;13.32;10.13;;;3.80;99.90;;;;;;4992719;28;20097;-87
2023/01/23 10:42:26;;;;;;;21.50;16.20;;;3.90;99.90;;;;;;4992329;28;20094;-87
2023/01/23 10:44:52;;;;;;;22.17;18.20;;;3.90;99.90;;;;;;4992657;28;20058;-83
2023/01/23 10:47:42;;;;;;;17.35;13.93;;;4.00;99.90;;;;;;4992242;28;20383;-85
2023/01/23 10:50:09;;;;;;;14.25;12.05;;;4.40;99.90;;;;;;4992831;28;20046;-84
2023/01/23 10:52:34;;;;;;;14.35;11.40;;;4.00;99.90;;;;;;4992516;28;20562;-84
2023/01/23 10:55:00;;;;;;;17.98;13.80;;;4.10;99.90;;;;;;4990295;28;20125;-83
2023/01/23 10:57:28;;;;;;;15.00;12.23;;;4.00;99.90;;;;;;4992253;28;20098;-84
2023/01/23 11:00:18;;;;;;;15.00;12.27;;;3.90;99.90;;;;;;4992399;28;20038;-83
2023/01/23 11:02:44;;;;;;;22.67;18.73;;;3.90;99.90;;;;;;4992724;28;20027;-85
2023/01/23 11:05:40;;;;;;;15.35;12.35;;;4.20;99.90;;;;;;4972022;28;20130;-85
2023/01/23 11:08:26;;;;;;;15.82;11.82;;;4.10;99.90;;;;;;4975609;28;20038;-86
2023/01/23 11:10:53;;;;;;;14.73;10.85;;;4.30;99.90;;;;;;4985655;28;20089;-84
2023/01/23 11:13:29;;;;;;;15.15;11.77;;;4.40;99.90;;;;;;4991672;28;20056;-84
2023/01/23 11:15:56;;;;;;;16.42;13.18;;;4.10;99.90;;;;;;4999397;28;20498;-84
2023/01/23 11:18:43;;;;;;;14.95;11.95;;;4.10;99.90;;;;;;5049724;28;20037;-85
2023/01/23 11:21:27;;;;;;;22.90;16.48;;;4.10;99.90;;;;;;5052595;28;20028;-85
2023/01/23 11:24:07;;;;;;;13.73;10.45;;;4.30;99.90;;;;;;5053499;28;20497;-84
2023/01/23 11:26:35;;;;;;;14.18;10.90;;;4.30;99.90;;;;;;5053187;28;20075;-84
2023/01/23 11:29:01;;;;;;;18.80;13.40;;;4.10;99.90;;;;;;5053405;28;20025;-84
2023/01/23 11:31:29;;;;;;;15.15;11.77;;;4.20;99.90;;;;;;5053321;28;20503;-85
2023/01/23 11:34:26;;;;;;;18.45;13.43;;;4.20;99.90;;;;;;5052008;28;20045;-85
2023/01/23 11:37:25;;;;;;;19.05;14.63;;;4.10;99.90;;;;;;5043168;28;20033;-86
2023/01/23 11:39:57;;;;;;;14.93;10.27;;;4.00;99.90;;;;;;5053117;28;20036;-84
2023/01/23 11:42:25;;;;;;;17.63;11.95;;;4.10;99.90;;;;;;5053287;28;20037;-83
2023/01/23 11:44:51;;;;;;;19.38;13.40;;;4.50;99.90;;;;;;5052776;28;20124;-86
2023/01/23 11:47:45;;;;;;;13.55;10.45;;;4.20;99.90;;;;;;5053011;28;20112;-88
2023/01/23 11:50:32;;;;;;;15.52;11.75;;;4.00;99.90;;;;;;5034722;28;20445;-88
2023/01/23 11:53:33;;;;;;;11.73;9.60;;;4.10;99.90;;;;;;5035240;28;20037;-87
2023/01/23 11:56:32;;;;;;;25.17;15.68;;;4.00;99.90;;;;;;5032127;28;20033;-87
2023/01/23 11:59:16;;;;;;;19.27;13.50;;;4.10;99.90;;;;;;5051813;28;20603;-87
2023/01/23 12:02:04;;;;;;;13.13;9.85;;;4.30;99.90;;;;;;5052991;28;20033;-87
2023/01/23 12:04:29;;;;;;;15.20;11.50;;;4.00;99.90;;;;;;5052535;28;20041;-86
2023/01/23 12:07:19;;;;;;;16.65;11.32;;;4.10;99.90;;;;;;5052261;28;20021;-86
2023/01/23 12:09:51;;;;;;;15.35;11.25;;;4.20;99.90;;;;;;5052650;28;20493;-86
2023/01/23 12:12:51;;;;;;;11.85;9.20;;;4.10;99.90;;;;;;5052508;28;20500;-85
2023/01/23 12:15:59;;;;;;;12.15;9.18;;;4.10;99.90;;;;;;4991602;28;20046;-86
2023/01/23 12:18:56;;;;;;;15.40;11.32;;;4.00;99.90;;;;;;4991116;28;20030;-85
2023/01/23 12:21:38;;;;;;;13.68;9.80;;;3.90;99.90;;;;;;4991188;28;20034;-88
2023/01/23 12:24:17;;;;;;;15.27;11.10;;;4.10;99.90;;;;;;4991273;28;20034;-87
2023/01/23 12:27:33;;;;;;;53.72;33.78;;;4.20;99.90;;;;;;4990725;28;20065;-86
2023/01/23 12:30:13;;;;;;;40.25;30.05;;;4.10;99.90;;;;;;4991176;28;20057;-95
2023/01/23 12:32:48;;;;;;;16.52;14.10;;;4.20;99.90;;;;;;4989872;28;20057;-86
2023/01/23 12:35:23;;;;;;;17.65;13.48;;;4.30;99.90;;;;;;4991098;28;20444;-85
2023/01/23 12:38:10;;;;;;;12.85;10.27;;;4.20;99.90;;;;;;4990853;28;20120;-86
2023/01/23 12:40:36;;;;;;;12.98;10.85;;;4.20;99.90;;;;;;4990486;28;20027;-86
2023/01/23 12:43:17;;;;;;;12.77;11.38;;;4.60;99.90;;;;;;4990673;28;20165;-86
2023/01/23 12:45:49;;;;;;;13.70;12.23;;;4.30;99.90;;;;;;4990723;28;20100;-86
2023/01/23 12:48:27;;;;;;;13.82;11.95;;;4.70;99.90;;;;;;4990366;28;20531;-86
2023/01/23 12:51:01;;;;;;;11.77;9.75;;;4.30;99.90;;;;;;4990465;28;20094;-83
2023/01/23 12:53:29;;;;;;;17.98;12.23;;;4.30;99.90;;;;;;5051852;28;20071;-86
2023/01/23 12:56:14;;;;;;;9.30;7.72;;;4.60;99.90;;;;;;5051903;28;20025;-86
2023/01/23 12:58:46;;;;;;;24.88;18.48;;;4.50;99.90;;;;;;5052065;28;20030;-86